createdAt,value
2023-02-11T09:02:46.660Z,10.13
2023-02-11T09:05:13.660Z,10.18
2023-02-11T09:07:40.709Z,7.38
2023-02-11T09:10:07.836Z,8.45
2023-02-11T09:12:34.937Z,9.77
2023-02-11T09:15:02.031Z,7.35
2023-02-11T09:17:29.066Z,7.13
2023-02-11T09:19:56.038Z,6.45
2023-02-11T09:22:23.033Z,4.72
2023-02-11T09:24:50.038Z,4.25
2023-02-11T09:27:17.001Z,4.00
2023-02-11T09:29:44.030Z,2.78
2023-02-11T09:32:11.160Z,2.28
2023-02-11T09:34:38.278Z,4.15
2023-02-11T09:37:05.297Z,2.63
2023-02-11T09:39:32.261Z,4.07
2023-02-11T09:41:59.215Z,1.60
2023-02-11T09:44:27.941Z,2.97
2023-02-11T09:47:21.410Z,1.75
2023-02-11T09:49:50.636Z,1.60
2023-02-11T09:52:32.748Z,1.40
2023-02-11T09:55:04.324Z,0.98
2023-02-11T09:57:35.736Z,2.03
2023-02-11T10:00:04.409Z,2.35
2023-02-11T10:02:44.971Z,2.85
2023-02-11T10:05:31.490Z,3.10
2023-02-11T10:08:01.530Z,3.00
2023-02-11T10:10:40.880Z,2.65
2023-02-11T10:13:13.686Z,4.68
2023-02-11T10:15:40.714Z,4.07
2023-02-11T10:18:07.797Z,4.20
2023-02-11T10:20:39.455Z,10.18
2023-02-11T10:23:27.303Z,11.48
2023-02-11T10:25:56.199Z,12.50
2023-02-11T10:28:25.220Z,8.68
2023-02-11T10:30:58.705Z,11.67
2023-02-11T10:33:32.515Z,5.15
2023-02-11T10:35:59.985Z,5.35
2023-02-11T10:38:27.979Z,7.43
2023-02-11T10:40:54.981Z,2.70
2023-02-11T10:43:24.845Z,3.90
2023-02-11T10:45:54.694Z,7.95
2023-02-11T10:48:40.714Z,38.63
2023-02-11T10:51:19.017Z,13.50
2023-02-11T10:53:46.879Z,15.10
2023-02-11T10:56:24.978Z,10.50
2023-02-11T10:59:02.311Z,8.63
2023-02-11T11:01:50.664Z,11.82
2023-02-11T11:04:36.410Z,14.27
2023-02-11T11:07:14.984Z,12.70
2023-02-11T11:09:45.104Z,11.53
2023-02-11T11:12:32.894Z,24.70
2023-02-11T11:15:01.717Z,22.70
2023-02-11T11:17:29.196Z,27.10
2023-02-11T11:20:14.749Z,29.38
2023-02-11T11:22:42.444Z,26.05
2023-02-11T11:25:26.789Z,20.08
2023-02-11T11:27:55.342Z,24.00
2023-02-11T11:30:23.904Z,16.00
2023-02-11T11:32:50.939Z,14.48
2023-02-11T11:35:22.443Z,17.63
2023-02-11T11:37:53.784Z,16.48
2023-02-11T11:40:25.697Z,12.00
2023-02-11T11:43:04.914Z,15.75
